Standort: A- 4920 Schildorn, St. Kollmann 6
Position: Ost 1327'49" Nord 4807'14" 563 m Seehhe
Werte der letzten 24 Stunden
Wetterdaten: aktuell Mittwoch, 28.09.2022 18:15
Datum Zeit Temp. A. Feuchte A. Luftdruck Regen Wind Richtung Richtung Sonnenschein UV Solar Windben Empfang
28.09.2022 18:15 8,8 C 91 % 999,8 hPa 0,0 l/m 3,0 km/h S-SW 203 0 min 0,0 UV-I 9 W/m 4,8 km/h 100,00 %
28.09.2022 17:15 9,0 C 90 % 999,6 hPa 0,2 l/m 5,6 km/h W 267 0 min 0,0 UV-I 31 W/m 6,4 km/h 100,00 %
28.09.2022 16:15 9,5 C 87 % 999,2 hPa 0,2 l/m 0,3 km/h W 269 0 min 0,0 UV-I 28 W/m 1,6 km/h 100,00 %
28.09.2022 15:15 10,2 C 87 % 999,3 hPa 0,0 l/m 10,3 km/h W-SW 250 8 min 0,9 UV-I 164 W/m 14,5 km/h 100,00 %
28.09.2022 14:15 11,4 C 83 % 998,7 hPa 0,5 l/m 9,6 km/h W-SW 254 2 min 1,9 UV-I 320 W/m 14,5 km/h 100,00 %
28.09.2022 13:15 10,6 C 86 % 998,8 hPa 0,0 l/m 7,4 km/h W-SW 253 5 min 1,5 UV-I 255 W/m 14,5 km/h 100,00 %
28.09.2022 12:15 9,4 C 88 % 998,6 hPa 0,7 l/m 2,5 km/h SW 219 0 min 1,3 UV-I 217 W/m 4,8 km/h 100,00 %
28.09.2022 11:15 9,0 C 93 % 998,5 hPa 0,2 l/m 6,0 km/h S-SO 165 0 min 0,7 UV-I 127 W/m 8,0 km/h 100,00 %
28.09.2022 10:15 8,6 C 90 % 998,3 hPa 0,2 l/m 10,7 km/h S 188 0 min 0,5 UV-I 123 W/m 16,1 km/h 100,00 %
28.09.2022 09:15 7,9 C 92 % 997,6 hPa 0,0 l/m 17,4 km/h S-SO 148 0 min 0,0 UV-I 93 W/m 22,5 km/h 100,00 %
28.09.2022 08:15 7,5 C 92 % 997,8 hPa 0,0 l/m 6,9 km/h SW 222 15 min 0,0 UV-I 72 W/m 9,7 km/h 100,00 %
28.09.2022 07:15 7,0 C 93 % 998,1 hPa 0,0 l/m 11,7 km/h S 186 5 min 0,0 UV-I 19 W/m 17,7 km/h 100,00 %
28.09.2022 06:15 6,8 C 94 % 999,0 hPa 0,0 l/m 10,5 km/h S 178 0 min 0,0 UV-I 0 W/m 14,5 km/h 100,00 %
28.09.2022 05:15 6,8 C 95 % 999,9 hPa 0,5 l/m 7,7 km/h S-SW 202 0 min 0,0 UV-I 0 W/m 11,3 km/h 100,00 %
28.09.2022 04:15 7,0 C 95 % 1001,0 hPa 1,1 l/m 3,6 km/h S-SW 209 0 min 0,0 UV-I 0 W/m 6,4 km/h 100,00 %
28.09.2022 03:15 7,2 C 93 % 1001,9 hPa 0,7 l/m 0,0 km/h S 171 0 min 0,0 UV-I 0 W/m 0,0 km/h 100,00 %
28.09.2022 02:15 7,8 C 90 % 1002,4 hPa 0,9 l/m 8,4 km/h S-SW 212 0 min 0,0 UV-I 0 W/m 14,5 km/h 100,00 %
28.09.2022 01:15 7,9 C 89 % 1002,4 hPa 0,7 l/m 8,2 km/h S-SW 193 0 min 0,0 UV-I 0 W/m 11,3 km/h 100,00 %
28.09.2022 00:15 7,6 C 90 % 1002,7 hPa 0,0 l/m 8,4 km/h SW 219 0 min 0,0 UV-I 0 W/m 11,3 km/h 100,00 %
27.09.2022 23:15 7,9 C 88 % 1003,0 hPa 0,0 l/m 6,1 km/h S-SW 196 0 min 0,0 UV-I 0 W/m 9,7 km/h 100,00 %
27.09.2022 22:15 7,4 C 90 % 1003,0 hPa 0,5 l/m 7,0 km/h S-SW 207 0 min 0,0 UV-I 0 W/m 9,7 km/h 100,00 %
27.09.2022 21:15 7,8 C 89 % 1003,2 hPa 0,9 l/m 4,4 km/h SW 223 0 min 0,0 UV-I 0 W/m 6,4 km/h 100,00 %
27.09.2022 20:15 9,2 C 76 % 1002,4 hPa 0,0 l/m 8,3 km/h W-SW 251 0 min 0,0 UV-I 0 W/m 9,7 km/h 100,00 %
27.09.2022 19:15 9,1 C 77 % 1002,0 hPa 0,0 l/m 3,4 km/h W 264 0 min 0,0 UV-I 0 W/m 8,0 km/h 100,00 %
27.09.2022 19:00 9,2 C 76 % 1002,0 hPa 0,0 l/m 13,5 km/h W-SW 256 0 min 0,0 UV-I 0 W/m 17,7 km/h 100,00 %
_ Min-Zeit 04:57 19:00 08:36 - 21:36 - - - - - 21:36 19:00
Minimum _ 6,7 C 76 % 997,4 hPa - 0,0 km/h - - - - - 0,0 km/h 100,00 %
_ Max-Zeit 14:19 04:58 20:52 20:50 20:55 - - 07:11 12:56 14:19 20:49 19:00
Maximum _ 11,5 C 96 % 1003,2 hPa 0,2 l/m 21,9 km/h
SW
- - 1 min 2,2 UV-I 389 W/m 32,2 km/h
W-SW
100,00 %
Durchschnitt _ 8,4 C 88 % 1000,4 hPa #7,4 l/m 8,0 km/h S-SW - #35 min. 1,1 UV-I 122 W/m 11,4 km/h 100,00 %
Daten ab 1. Mai 2002 - die Jahresstatistiken sind aber falsch (grere Aufzeichnungslcken)